Time;durP1;ratioP1;P1;durP2;ratioP2;P2;SDS_P1;SDS_P2;PMS_P1;PMS_P2;Temp;Humidity;BMP_temperature;BMP_pressure;BME280_temperature;BME280_humidity;BME280_pressure;Samples;Min_cycle;Max_cycle;Signal;HPM_P1;HPM_P2
2022/09/10 00:01:58;;;;;;;5.07;4.73;;;;;;;;;;5202991;28;20542;-69
2022/09/10 00:04:28;;;;;;;10.93;6.63;;;;;;;;;;5203372;28;20257;-68
2022/09/10 00:06:59;;;;;;;5.22;4.75;;;;;;;;;;5202651;28;20029;-67
2022/09/10 00:09:29;;;;;;;5.55;5.15;;;;;;;;;;5203445;28;20025;-67
2022/09/10 00:11:59;;;;;;;12.03;7.13;;;;;;;;;;5204380;28;20076;-66
2022/09/10 00:14:30;;;;;;;7.53;6.82;;;;;;;;;;5203690;28;20284;-66
2022/09/10 00:19:32;;;;;;;10.75;6.75;;;;;;;;;;5198039;28;20073;-80
2022/09/10 00:22:03;;;;;;;13.40;6.10;;;;;;;;;;5187964;28;20486;-80
2022/09/10 00:24:33;;;;;;;8.30;7.57;;;;;;;;;;5185890;28;20261;-78
2022/09/10 00:27:03;;;;;;;14.17;6.57;;;;;;;;;;5185230;28;20257;-79
2022/09/10 00:29:34;;;;;;;6.63;6.05;;;;;;;;;;5185981;28;20268;-79
2022/09/10 00:32:04;;;;;;;7.18;6.68;;;;;;;;;;5187191;28;20344;-78
2022/09/10 00:34:35;;;;;;;8.20;6.50;;;;;;;;;;5188208;28;20028;-78
2022/09/10 00:37:05;;;;;;;9.73;6.80;;;;;;;;;;5189026;28;20010;-78
2022/09/10 00:39:35;;;;;;;6.33;5.97;;;;;;;;;;5190907;28;20126;-79
2022/09/10 00:42:05;;;;;;;7.97;7.43;;;;;;;;;;5190244;28;20376;-78
2022/09/10 00:44:39;;;;;;;7.78;7.18;;;;;;;;;;5189178;28;20264;-80
2022/09/10 00:47:21;;;;;;;7.65;6.85;;;;;;;;;;5190122;28;20094;-79
2022/09/10 00:49:54;;;;;;;8.38;7.68;;;;;;;;;;5189997;28;20148;-80
2022/09/10 00:52:28;;;;;;;13.98;7.28;;;;;;;;;;5189770;28;20026;-79
2022/09/10 00:54:58;;;;;;;9.52;7.40;;;;;;;;;;5188414;28;20108;-78
2022/09/10 00:57:28;;;;;;;8.57;7.68;;;;;;;;;;5190039;28;20044;-78
2022/09/10 01:00:01;;;;;;;8.97;7.20;;;;;;;;;;5187901;28;20024;-79
2022/09/10 01:02:31;;;;;;;9.00;7.10;;;;;;;;;;5189462;28;20252;-79
2022/09/10 01:05:02;;;;;;;11.43;9.55;;;;;;;;;;5188799;28;20061;-79
2022/09/10 01:07:33;;;;;;;8.13;7.13;;;;;;;;;;5189513;28;20036;-78
2022/09/10 01:10:09;;;;;;;11.90;8.40;;;;;;;;;;5188676;28;20026;-79
2022/09/10 01:12:58;;;;;;;8.70;7.20;;;;;;;;;;5189514;28;20415;-81
2022/09/10 01:15:40;;;;;;;9.23;7.60;;;;;;;;;;5187991;28;20037;-79
2022/09/10 01:18:10;;;;;;;7.85;7.18;;;;;;;;;;5186312;28;20127;-81
2022/09/10 01:20:50;;;;;;;9.87;7.07;;;;;;;;;;5187126;28;20053;-78
2022/09/10 01:23:23;;;;;;;10.50;8.73;;;;;;;;;;5186859;28;20076;-80
2022/09/10 01:26:11;;;;;;;14.43;7.88;;;;;;;;;;5186170;28;20049;-78
2022/09/10 01:28:45;;;;;;;7.72;7.03;;;;;;;;;;5186401;28;20030;-78
2022/09/10 01:31:30;;;;;;;9.00;7.65;;;;;;;;;;5186207;28;20022;-80
2022/09/10 01:34:03;;;;;;;13.73;7.80;;;;;;;;;;5185016;28;20348;-79
2022/09/10 01:36:37;;;;;;;8.50;7.72;;;;;;;;;;5186752;28;20105;-80
2022/09/10 01:39:07;;;;;;;15.20;7.97;;;;;;;;;;5186591;28;20033;-80
2022/09/10 01:41:37;;;;;;;9.63;8.00;;;;;;;;;;5188461;28;20021;-79
2022/09/10 01:44:09;;;;;;;11.38;8.38;;;;;;;;;;5186960;28;20615;-80
2022/09/10 01:46:44;;;;;;;8.57;6.75;;;;;;;;;;5188335;28;20243;-79
2022/09/10 01:49:14;;;;;;;7.70;6.57;;;;;;;;;;5188314;28;20105;-81
2022/09/10 01:52:07;;;;;;;6.97;6.33;;;;;;;;;;5189618;28;20022;-79
2022/09/10 01:55:10;;;;;;;10.90;7.68;;;;;;;;;;5195750;28;20306;-78
2022/09/10 01:58:03;;;;;;;9.15;8.30;;;;;;;;;;5177049;28;20030;-81
2022/09/10 02:00:34;;;;;;;10.48;7.85;;;;;;;;;;5200423;28;20026;-79
2022/09/10 02:03:12;;;;;;;8.75;7.95;;;;;;;;;;5195866;28;20049;-79
2022/09/10 02:05:43;;;;;;;13.35;8.32;;;;;;;;;;5197531;28;20029;-80
2022/09/10 02:08:16;;;;;;;9.52;8.63;;;;;;;;;;5197346;28;20026;-78
2022/09/10 02:10:48;;;;;;;12.55;8.55;;;;;;;;;;5197747;28;20036;-79
2022/09/10 02:13:19;;;;;;;7.70;7.07;;;;;;;;;;5197398;28;20447;-78
2022/09/10 02:15:51;;;;;;;8.10;7.25;;;;;;;;;;5197844;28;20033;-80
2022/09/10 02:18:22;;;;;;;7.55;6.95;;;;;;;;;;5198915;28;20456;-81
2022/09/10 02:20:54;;;;;;;9.02;8.10;;;;;;;;;;5200977;28;20025;-79
2022/09/10 02:23:30;;;;;;;7.97;7.22;;;;;;;;;;5201077;28;20021;-80
2022/09/10 02:26:00;;;;;;;8.10;7.35;;;;;;;;;;5189775;28;20403;-79
2022/09/10 02:28:31;;;;;;;8.85;8.00;;;;;;;;;;5193485;28;20030;-77
2022/09/10 02:31:01;;;;;;;7.18;6.57;;;;;;;;;;5194256;28;20025;-78
2022/09/10 02:33:31;;;;;;;9.57;8.67;;;;;;;;;;5186494;28;20037;-78
2022/09/10 02:36:02;;;;;;;9.30;8.40;;;;;;;;;;5187498;28;20292;-78
2022/09/10 02:38:33;;;;;;;10.60;9.65;;;;;;;;;;5185740;28;20630;-80
2022/09/10 02:41:03;;;;;;;8.60;7.95;;;;;;;;;;5185303;28;20028;-79
2022/09/10 02:43:35;;;;;;;9.90;8.93;;;;;;;;;;5186146;28;20132;-79
2022/09/10 02:46:06;;;;;;;12.27;7.15;;;;;;;;;;5186861;28;20375;-78
2022/09/10 02:48:37;;;;;;;15.85;9.13;;;;;;;;;;5184959;28;20021;-78
2022/09/10 02:51:07;;;;;;;11.30;8.75;;;;;;;;;;5182907;28;20498;-79
2022/09/10 02:53:38;;;;;;;8.25;7.50;;;;;;;;;;5182115;28;20109;-79
2022/09/10 02:56:08;;;;;;;20.25;10.23;;;;;;;;;;5184104;28;20026;-77
2022/09/10 02:58:38;;;;;;;8.07;7.45;;;;;;;;;;5183897;28;20590;-77
2022/09/10 03:01:10;;;;;;;11.73;10.73;;;;;;;;;;5183944;28;20026;-78
2022/09/10 03:03:40;;;;;;;13.15;10.60;;;;;;;;;;5183017;28;20326;-78
2022/09/10 03:06:10;;;;;;;10.65;9.85;;;;;;;;;;5185307;28;20030;-79
2022/09/10 03:08:41;;;;;;;11.02;10.23;;;;;;;;;;5187721;28;20022;-78
2022/09/10 03:11:14;;;;;;;13.93;9.20;;;;;;;;;;5187269;28;20440;-78
2022/09/10 03:13:44;;;;;;;11.63;9.75;;;;;;;;;;5186477;28;20279;-81
2022/09/10 03:16:15;;;;;;;13.95;10.13;;;;;;;;;;5186993;28;20036;-80
2022/09/10 03:18:46;;;;;;;12.35;11.13;;;;;;;;;;5186954;28;20101;-80
2022/09/10 03:21:17;;;;;;;10.85;9.82;;;;;;;;;;5187232;28;20087;-79
2022/09/10 03:23:48;;;;;;;10.25;9.35;;;;;;;;;;5184468;28;20033;-79
2022/09/10 03:26:19;;;;;;;10.20;9.18;;;;;;;;;;5186118;28;20329;-79
2022/09/10 03:28:49;;;;;;;10.75;9.95;;;;;;;;;;5185486;28;20030;-80
2022/09/10 03:31:20;;;;;;;12.55;11.20;;;;;;;;;;5185283;28;20083;-80
2022/09/10 03:33:50;;;;;;;11.82;10.80;;;;;;;;;;5185077;28;20022;-79
2022/09/10 03:36:21;;;;;;;17.90;10.57;;;;;;;;;;5184215;28;20026;-79
2022/09/10 03:38:51;;;;;;;11.82;10.50;;;;;;;;;;5183299;28;20014;-81
2022/09/10 03:41:22;;;;;;;12.57;11.07;;;;;;;;;;5186017;28;20026;-81
2022/09/10 03:43:53;;;;;;;11.45;10.57;;;;;;;;;;5183275;28;20503;-79
2022/09/10 03:46:23;;;;;;;19.85;12.10;;;;;;;;;;5185182;28;20025;-80
2022/09/10 03:48:54;;;;;;;13.68;12.25;;;;;;;;;;5183317;28;20036;-79
2022/09/10 03:51:24;;;;;;;15.77;11.73;;;;;;;;;;5185064;28;20025;-78
2022/09/10 03:53:54;;;;;;;13.10;11.83;;;;;;;;;;5185260;28;20261;-81
2022/09/10 03:56:25;;;;;;;18.45;11.75;;;;;;;;;;5187726;28;20300;-81
2022/09/10 03:58:56;;;;;;;13.32;11.35;;;;;;;;;;5187690;28;20020;-79
2022/09/10 04:01:26;;;;;;;15.52;14.15;;;;;;;;;;5186638;28;20026;-79
2022/09/10 04:03:57;;;;;;;12.93;11.77;;;;;;;;;;5189005;28;20029;-78
2022/09/10 04:06:27;;;;;;;16.60;14.45;;;;;;;;;;5192295;28;20268;-79
2022/09/10 04:08:57;;;;;;;13.60;12.30;;;;;;;;;;5192518;28;20559;-78
2022/09/10 04:11:28;;;;;;;17.20;15.18;;;;;;;;;;5190307;28;20746;-79
2022/09/10 04:13:58;;;;;;;17.50;15.68;;;;;;;;;;5188573;28;20483;-79
2022/09/10 04:16:30;;;;;;;16.02;14.25;;;;;;;;;;5188990;28;20025;-78
2022/09/10 04:19:01;;;;;;;15.15;14.02;;;;;;;;;;5188094;28;20030;-79
2022/09/10 04:21:31;;;;;;;17.13;15.38;;;;;;;;;;5186232;28;20018;-79
2022/09/10 04:24:01;;;;;;;19.33;15.90;;;;;;;;;;5183458;28;20018;-79
2022/09/10 04:26:32;;;;;;;18.88;17.27;;;;;;;;;;5184513;28;20269;-79
2022/09/10 04:29:02;;;;;;;19.20;17.23;;;;;;;;;;5188619;28;20026;-80
2022/09/10 04:31:32;;;;;;;17.42;16.13;;;;;;;;;;5187915;28;20268;-80
2022/09/10 04:34:02;;;;;;;18.00;16.20;;;;;;;;;;5191073;28;20049;-80
2022/09/10 04:36:33;;;;;;;24.27;18.95;;;;;;;;;;5193785;28;20277;-79
2022/09/10 04:39:03;;;;;;;21.08;17.55;;;;;;;;;;5193877;28;20048;-79
2022/09/10 04:41:33;;;;;;;19.42;17.48;;;;;;;;;;5191700;28;20022;-80
2022/09/10 04:44:03;;;;;;;18.50;16.73;;;;;;;;;;5190490;28;20052;-80
2022/09/10 04:46:35;;;;;;;17.38;15.95;;;;;;;;;;5192861;28;20030;-80
2022/09/10 04:49:05;;;;;;;20.85;18.77;;;;;;;;;;5191748;28;20080;-80
2022/09/10 04:51:35;;;;;;;22.73;20.58;;;;;;;;;;5189203;28;20026;-80
2022/09/10 04:54:06;;;;;;;22.47;20.47;;;;;;;;;;5190998;28;20464;-80
2022/09/10 04:56:36;;;;;;;22.67;20.75;;;;;;;;;;5193581;28;20288;-80
2022/09/10 04:59:06;;;;;;;24.77;20.13;;;;;;;;;;5194472;28;20010;-79
2022/09/10 05:01:37;;;;;;;25.70;23.35;;;;;;;;;;5193280;28;20306;-80
2022/09/10 05:04:07;;;;;;;25.40;22.43;;;;;;;;;;5192019;28;20372;-82
2022/09/10 05:06:37;;;;;;;25.63;22.98;;;;;;;;;;5190000;28;20861;-83
2022/09/10 05:09:08;;;;;;;23.25;21.27;;;;;;;;;;5191481;28;20025;-79
2022/09/10 05:11:38;;;;;;;28.42;25.73;;;;;;;;;;5189804;28;20070;-82
2022/09/10 05:14:08;;;;;;;25.50;21.73;;;;;;;;;;5190040;28;20036;-81
2022/09/10 05:16:39;;;;;;;30.60;27.30;;;;;;;;;;5193444;28;20268;-82
2022/09/10 05:19:16;;;;;;;25.35;22.80;;;;;;;;;;5193740;28;20026;-81
2022/09/10 05:21:47;;;;;;;27.25;24.75;;;;;;;;;;5192993;28;20101;-80
2022/09/10 05:24:17;;;;;;;29.48;26.45;;;;;;;;;;5192317;28;20119;-81
2022/09/10 05:26:47;;;;;;;28.27;25.47;;;;;;;;;;5193438;28;20476;-81
2022/09/10 05:29:18;;;;;;;30.07;27.20;;;;;;;;;;5193010;28;20269;-81
2022/09/10 05:31:48;;;;;;;31.65;28.73;;;;;;;;;;5191298;28;20253;-79
2022/09/10 05:34:19;;;;;;;31.33;28.47;;;;;;;;;;5190517;28;20018;-79
2022/09/10 05:36:49;;;;;;;29.95;27.30;;;;;;;;;;5191959;28;20291;-80
2022/09/10 05:39:19;;;;;;;33.65;27.08;;;;;;;;;;5191569;28;20027;-80
2022/09/10 05:41:50;;;;;;;27.30;24.43;;;;;;;;;;5190305;28;20014;-79
2022/09/10 05:44:20;;;;;;;33.45;30.25;;;;;;;;;;5189037;28;20257;-79
2022/09/10 05:46:50;;;;;;;34.97;30.07;;;;;;;;;;5189868;28;20022;-79
2022/09/10 05:49:21;;;;;;;29.95;26.95;;;;;;;;;;5187684;28;20032;-79
2022/09/10 05:51:51;;;;;;;33.20;30.23;;;;;;;;;;5189825;28;20021;-79
2022/09/10 05:54:21;;;;;;;30.07;26.97;;;;;;;;;;5186589;28;20231;-79
2022/09/10 05:56:52;;;;;;;32.07;29.10;;;;;;;;;;5188762;28;20316;-79
2022/09/10 05:59:23;;;;;;;33.05;30.08;;;;;;;;;;5189220;28;20264;-80
2022/09/10 06:01:53;;;;;;;30.23;27.50;;;;;;;;;;5188889;28;20022;-81
2022/09/10 06:04:23;;;;;;;26.73;23.92;;;;;;;;;;5186925;28;20022;-81
2022/09/10 06:06:54;;;;;;;37.08;32.33;;;;;;;;;;5188337;28;20026;-82
2022/09/10 06:09:24;;;;;;;34.07;29.63;;;;;;;;;;5189712;28;20014;-82
2022/09/10 06:11:54;;;;;;;31.80;28.67;;;;;;;;;;5191619;28;20631;-80
2022/09/10 06:14:24;;;;;;;28.23;25.85;;;;;;;;;;5188208;28;20456;-79
2022/09/10 06:16:55;;;;;;;29.33;26.83;;;;;;;;;;5188313;28;20071;-81
2022/09/10 06:19:25;;;;;;;28.73;26.10;;;;;;;;;;5243090;22;20792;-69
2022/09/10 06:21:55;;;;;;;29.60;26.95;;;;;;;;;;5222929;28;20029;-65
2022/09/10 06:24:25;;;;;;;28.13;25.52;;;;;;;;;;5224911;28;20066;-64
2022/09/10 06:26:56;;;;;;;32.43;29.60;;;;;;;;;;5225530;28;20029;-65
2022/09/10 06:29:28;;;;;;;29.75;26.67;;;;;;;;;;5224407;28;20271;-64
2022/09/10 06:31:59;;;;;;;29.70;26.60;;;;;;;;;;5225499;28;20013;-65
2022/09/10 06:34:29;;;;;;;32.70;25.50;;;;;;;;;;5223532;28;20013;-70
2022/09/10 06:37:01;;;;;;;30.48;25.05;;;;;;;;;;5225288;28;20020;-65
2022/09/10 06:39:31;;;;;;;26.67;24.17;;;;;;;;;;5224333;28;20036;-65
2022/09/10 06:42:01;;;;;;;27.60;24.63;;;;;;;;;;5225449;28;20025;-65
2022/09/10 06:44:32;;;;;;;29.25;26.70;;;;;;;;;;5224706;28;20029;-68
2022/09/10 06:47:02;;;;;;;26.27;23.60;;;;;;;;;;5221697;28;20067;-68
2022/09/10 06:49:32;;;;;;;29.42;26.60;;;;;;;;;;5236591;28;20260;-66
2022/09/10 06:52:02;;;;;;;29.93;23.97;;;;;;;;;;5224793;28;20021;-67
2022/09/10 06:54:33;;;;;;;28.88;26.00;;;;;;;;;;5224068;28;20325;-67
2022/09/10 06:57:03;;;;;;;26.97;24.67;;;;;;;;;;5222431;28;20464;-68
2022/09/10 06:59:34;;;;;;;33.08;28.17;;;;;;;;;;5223075;28;20798;-66
2022/09/10 07:02:04;;;;;;;29.08;26.63;;;;;;;;;;5224780;28;20380;-65
2022/09/10 07:04:34;;;;;;;27.03;24.70;;;;;;;;;;5237292;28;20486;-65
2022/09/10 07:07:04;;;;;;;27.80;24.75;;;;;;;;;;5244850;28;20676;-65
2022/09/10 07:09:35;;;;;;;31.27;27.63;;;;;;;;;;5243642;28;20481;-66
2022/09/10 07:12:05;;;;;;;26.00;23.27;;;;;;;;;;5243508;28;20251;-66
2022/09/10 07:14:35;;;;;;;24.95;22.58;;;;;;;;;;5243217;28;20365;-65
2022/09/10 07:17:05;;;;;;;27.60;24.87;;;;;;;;;;5243690;28;20016;-68
2022/09/10 07:19:39;;;;;;;25.52;23.00;;;;;;;;;;5241989;28;20275;-67
2022/09/10 07:22:09;;;;;;;26.83;24.08;;;;;;;;;;5243472;28;20013;-65
2022/09/10 07:24:39;;;;;;;22.87;20.67;;;;;;;;;;5229254;28;20103;-65
2022/09/10 07:27:09;;;;;;;25.17;22.67;;;;;;;;;;5232353;28;20735;-64
2022/09/10 07:29:40;;;;;;;23.95;22.13;;;;;;;;;;5243235;28;20754;-65
2022/09/10 07:32:10;;;;;;;22.80;20.70;;;;;;;;;;5244359;28;20021;-67
2022/09/10 07:34:40;;;;;;;23.07;21.07;;;;;;;;;;5242416;28;20381;-67
2022/09/10 07:37:10;;;;;;;23.17;20.77;;;;;;;;;;5242624;28;20285;-66
2022/09/10 07:39:41;;;;;;;22.35;20.25;;;;;;;;;;5242127;28;20275;-68
2022/09/10 07:42:11;;;;;;;23.38;19.92;;;;;;;;;;5240838;28;20095;-68
2022/09/10 07:44:41;;;;;;;23.50;21.65;;;;;;;;;;5231463;28;20020;-67
2022/09/10 07:47:11;;;;;;;18.50;16.88;;;;;;;;;;5242574;28;20098;-65
2022/09/10 07:49:43;;;;;;;21.20;19.33;;;;;;;;;;5242984;28;20024;-65
2022/09/10 07:52:13;;;;;;;19.33;17.33;;;;;;;;;;5243192;28;20350;-68
2022/09/10 07:54:44;;;;;;;19.05;15.90;;;;;;;;;;5242502;28;20195;-67
2022/09/10 07:57:15;;;;;;;17.25;15.88;;;;;;;;;;5242564;28;20489;-67
2022/09/10 07:59:46;;;;;;;17.55;16.33;;;;;;;;;;5242519;28;20027;-66
2022/09/10 08:02:16;;;;;;;18.05;16.33;;;;;;;;;;5243181;28;20141;-67
2022/09/10 08:04:46;;;;;;;13.93;12.57;;;;;;;;;;5241401;28;20491;-65
2022/09/10 08:07:17;;;;;;;18.05;16.27;;;;;;;;;;5243111;28;20020;-65
2022/09/10 08:09:47;;;;;;;16.27;14.77;;;;;;;;;;5242893;28;20021;-66
2022/09/10 08:12:18;;;;;;;17.10;15.55;;;;;;;;;;5242991;28;20042;-65
2022/09/10 08:14:48;;;;;;;17.40;15.80;;;;;;;;;;5242637;28;20027;-64
2022/09/10 08:17:18;;;;;;;14.50;13.23;;;;;;;;;;5243187;28;20347;-64
2022/09/10 08:19:49;;;;;;;19.80;15.85;;;;;;;;;;5241712;28;20302;-66
2022/09/10 08:22:19;;;;;;;14.75;13.55;;;;;;;;;;5238252;28;20738;-67
2022/09/10 08:24:50;;;;;;;17.85;16.15;;;;;;;;;;5238175;28;20028;-65
2022/09/10 08:27:20;;;;;;;14.85;13.63;;;;;;;;;;5242299;28;20070;-64
2022/09/10 08:29:50;;;;;;;16.70;15.20;;;;;;;;;;5242386;28;20287;-65
2022/09/10 08:32:20;;;;;;;15.00;13.50;;;;;;;;;;5243053;28;20059;-64
2022/09/10 08:34:51;;;;;;;17.65;16.05;;;;;;;;;;5240574;28;20289;-64
2022/09/10 08:37:21;;;;;;;17.90;16.13;;;;;;;;;;5241307;28;20391;-64
2022/09/10 08:39:51;;;;;;;16.40;14.77;;;;;;;;;;5241137;28;20013;-65
2022/09/10 08:42:25;;;;;;;16.00;14.50;;;;;;;;;;5242559;28;20077;-65
2022/09/10 08:45:19;;;;;;;14.55;13.35;;;;;;;;;;5241897;28;20263;-65
2022/09/10 08:48:07;;;;;;;17.48;16.00;;;;;;;;;;5237481;28;20028;-65
2022/09/10 08:50:37;;;;;;;20.90;16.30;;;;;;;;;;5246456;28;20024;-66
2022/09/10 08:53:18;;;;;;;17.80;16.23;;;;;;;;;;5245199;28;20157;-66
2022/09/10 08:55:49;;;;;;;16.13;14.73;;;;;;;;;;5246342;28;20274;-66
2022/09/10 08:58:24;;;;;;;19.23;13.40;;;;;;;;;;5245379;28;20063;-67
2022/09/10 09:00:56;;;;;;;16.85;15.43;;;;;;;;;;5229299;28;20489;-65
2022/09/10 09:03:36;;;;;;;18.85;17.42;;;;;;;;;;5245617;28;20039;-66
2022/09/10 09:06:07;;;;;;;21.98;16.60;;;;;;;;;;5243696;28;20021;-67
2022/09/10 09:08:47;;;;;;;28.15;18.20;;;;;;;;;;5246428;28;20048;-67
2022/09/10 09:11:28;;;;;;;17.40;15.45;;;;;;;;;;5246459;28;20040;-66
2022/09/10 09:14:16;;;;;;;17.10;15.55;;;;;;;;;;5246670;28;20142;-66
2022/09/10 09:17:05;;;;;;;17.63;16.08;;;;;;;;;;5245730;28;20058;-67
2022/09/10 09:19:35;;;;;;;18.30;15.70;;;;;;;;;;5246838;28;20024;-67
2022/09/10 09:22:33;;;;;;;18.80;16.90;;;;;;;;;;5247053;28;20013;-67
2022/09/10 09:25:10;;;;;;;18.45;16.98;;;;;;;;;;5222016;28;20822;-68
2022/09/10 09:27:41;;;;;;;17.98;16.02;;;;;;;;;;5247008;28;20024;-66
2022/09/10 09:30:22;;;;;;;17.05;15.25;;;;;;;;;;5246860;28;20107;-66
2022/09/10 09:32:55;;;;;;;16.80;15.52;;;;;;;;;;5246987;28;20116;-67
2022/09/10 09:35:25;;;;;;;17.98;16.52;;;;;;;;;;5245829;28;20023;-67
2022/09/10 09:38:25;;;;;;;20.63;17.20;;;;;;;;;;5245766;28;20012;-66
2022/09/10 09:41:00;;;;;;;20.30;18.52;;;;;;;;;;5244636;28;20037;-69
2022/09/10 09:43:46;;;;;;;24.42;15.77;;;;;;;;;;5258333;28;20020;-68
2022/09/10 09:46:17;;;;;;;17.40;15.80;;;;;;;;;;5260348;28;20025;-67
2022/09/10 09:48:52;;;;;;;17.65;16.00;;;;;;;;;;5247021;28;20565;-68
2022/09/10 09:51:24;;;;;;;17.75;16.05;;;;;;;;;;5244765;28;20499;-68
2022/09/10 09:53:56;;;;;;;16.52;15.18;;;;;;;;;;5246109;28;20058;-68
2022/09/10 09:56:34;;;;;;;18.05;16.20;;;;;;;;;;5245860;28;20067;-67
2022/09/10 09:59:10;;;;;;;17.90;16.60;;;;;;;;;;5246170;28;20024;-68
2022/09/10 10:01:41;;;;;;;17.00;15.60;;;;;;;;;;5244699;28;20490;-67
2022/09/10 10:04:23;;;;;;;18.75;16.75;;;;;;;;;;5246115;28;20012;-67
2022/09/10 10:06:54;;;;;;;19.63;17.88;;;;;;;;;;5246216;28;20016;-67
2022/09/10 10:09:29;;;;;;;16.85;15.48;;;;;;;;;;5245072;28;20017;-67
2022/09/10 10:12:04;;;;;;;18.67;15.80;;;;;;;;;;5245858;28;20107;-67
2022/09/10 10:14:35;;;;;;;20.90;18.70;;;;;;;;;;5245389;28;20021;-68
2022/09/10 10:17:23;;;;;;;20.23;17.23;;;;;;;;;;5245555;28;20021;-68
2022/09/10 10:20:02;;;;;;;16.60;14.93;;;;;;;;;;5244995;28;20023;-68
2022/09/10 10:22:33;;;;;;;16.73;15.48;;;;;;;;;;5245740;28;20132;-68
2022/09/10 10:25:19;;;;;;;18.55;16.65;;;;;;;;;;5245709;28;20044;-69
2022/09/10 10:27:50;;;;;;;16.10;14.60;;;;;;;;;;5246690;28;20035;-69
2022/09/10 10:30:21;;;;;;;18.70;15.98;;;;;;;;;;5245368;28;20052;-68
2022/09/10 10:32:56;;;;;;;20.15;17.25;;;;;;;;;;5243618;28;20029;-69
2022/09/10 10:35:33;;;;;;;17.65;16.25;;;;;;;;;;5244637;28;20024;-69
2022/09/10 10:38:18;;;;;;;16.90;15.50;;;;;;;;;;5233674;28;20055;-68
2022/09/10 10:40:55;;;;;;;18.17;14.90;;;;;;;;;;5224252;28;20100;-68
2022/09/10 10:43:44;;;;;;;18.80;17.20;;;;;;;;;;5244180;28;20020;-69
2022/09/10 10:46:21;;;;;;;18.20;16.27;;;;;;;;;;5242309;28;20725;-70
2022/09/10 10:48:57;;;;;;;14.13;12.93;;;;;;;;;;5236047;28;20453;-69
2022/09/10 10:51:34;;;;;;;15.85;12.88;;;;;;;;;;5244707;28;20025;-69
2022/09/10 10:54:23;;;;;;;13.68;12.38;;;;;;;;;;5244252;28;20044;-69
2022/09/10 10:57:13;;;;;;;17.67;12.43;;;;;;;;;;5239901;28;20036;-71
2022/09/10 11:00:06;;;;;;;15.20;13.68;;;;;;;;;;5224637;28;20438;-71
2022/09/10 11:02:43;;;;;;;13.77;12.38;;;;;;;;;;5224515;28;20050;-70
2022/09/10 11:05:19;;;;;;;14.05;12.77;;;;;;;;;;5223435;28;20473;-70
2022/09/10 11:07:49;;;;;;;22.00;15.30;;;;;;;;;;5226376;28;20033;-70
2022/09/10 11:10:35;;;;;;;13.35;12.25;;;;;;;;;;5222688;28;20052;-69
2022/09/10 11:13:09;;;;;;;14.68;11.55;;;;;;;;;;5222791;28;20020;-68
2022/09/10 11:15:42;;;;;;;17.05;12.38;;;;;;;;;;5222993;28;20252;-69
2022/09/10 11:18:15;;;;;;;12.27;11.38;;;;;;;;;;5222890;28;20040;-68
2022/09/10 11:20:53;;;;;;;12.45;11.27;;;;;;;;;;5222203;28;20009;-68
2022/09/10 11:23:23;;;;;;;12.55;11.48;;;;;;;;;;5221537;28;20071;-69
2022/09/10 11:25:54;;;;;;;11.60;10.60;;;;;;;;;;5222168;28;20033;-68
2022/09/10 11:28:27;;;;;;;12.43;11.17;;;;;;;;;;5221199;28;20405;-68
2022/09/10 11:31:01;;;;;;;13.55;12.25;;;;;;;;;;5221520;28;20259;-68
2022/09/10 11:33:45;;;;;;;11.43;10.35;;;;;;;;;;5222471;28;20100;-68
2022/09/10 11:36:42;;;;;;;10.82;9.85;;;;;;;;;;5235012;28;20069;-70
2022/09/10 11:39:19;;;;;;;12.95;11.73;;;;;;;;;;5227205;28;20036;-69
2022/09/10 11:41:52;;;;;;;11.48;9.15;;;;;;;;;;5242338;28;20028;-68
2022/09/10 11:44:35;;;;;;;10.13;9.20;;;;;;;;;;5243286;28;20472;-69
2022/09/10 11:47:14;;;;;;;10.52;9.50;;;;;;;;;;5242146;28;20023;-68
2022/09/10 11:49:47;;;;;;;9.30;8.63;;;;;;;;;;5243527;28;20017;-68
2022/09/10 11:52:19;;;;;;;10.55;9.23;;;;;;;;;;5242164;28;20020;-70
2022/09/10 11:54:51;;;;;;;10.10;9.05;;;;;;;;;;5241179;28;20085;-69
2022/09/10 11:57:28;;;;;;;9.82;8.18;;;;;;;;;;5243684;28;20099;-68
2022/09/10 12:00:08;;;;;;;9.48;8.77;;;;;;;;;;5242031;28;20016;-65
2022/09/10 12:02:39;;;;;;;9.50;8.80;;;;;;;;;;5243800;28;20020;-64
2022/09/10 12:05:18;;;;;;;9.93;9.02;;;;;;;;;;5242793;28;20151;-65
2022/09/10 12:07:52;;;;;;;11.95;10.85;;;;;;;;;;5241516;28;20382;-64
2022/09/10 12:10:30;;;;;;;11.52;9.88;;;;;;;;;;5243259;28;20095;-66
2022/09/10 12:13:06;;;;;;;10.55;9.60;;;;;;;;;;5243736;28;20055;-67
2022/09/10 12:15:37;;;;;;;13.10;11.48;;;;;;;;;;5243082;28;20020;-67
2022/09/10 12:18:13;;;;;;;15.25;12.20;;;;;;;;;;5249166;22;20234;-69
2022/09/10 12:20:58;;;;;;;13.18;11.80;;;;;;;;;;5195136;28;20100;-69
2022/09/10 12:23:30;;;;;;;13.48;10.70;;;;;;;;;;5203241;28;20373;-69
2022/09/10 12:26:06;;;;;;;14.73;12.15;;;;;;;;;;5204157;28;20013;-69
2022/09/10 12:28:52;;;;;;;13.23;12.10;;;;;;;;;;5204727;28;20079;-69
2022/09/10 12:31:22;;;;;;;9.77;8.77;;;;;;;;;;5203549;28;20069;-69
2022/09/10 12:33:53;;;;;;;14.25;11.05;;;;;;;;;;5198288;28;20040;-68
2022/09/10 12:36:26;;;;;;;9.53;8.83;;;;;;;;;;5184372;28;20105;-69
2022/09/10 12:39:19;;;;;;;9.25;8.45;;;;;;;;;;5181600;28;20120;-70
2022/09/10 12:41:49;;;;;;;11.00;9.80;;;;;;;;;;5183933;28;20500;-70
2022/09/10 12:44:25;;;;;;;10.40;9.23;;;;;;;;;;5184855;28;20025;-68
2022/09/10 12:47:14;;;;;;;10.10;8.55;;;;;;;;;;5185301;28;20640;-68
2022/09/10 12:49:47;;;;;;;13.53;8.93;;;;;;;;;;5200255;28;20049;-68
2022/09/10 12:52:42;;;;;;;9.65;8.43;;;;;;;;;;5184889;28;20053;-69
2022/09/10 12:55:30;;;;;;;12.52;9.10;;;;;;;;;;5180224;28;20029;-69
2022/09/10 12:58:10;;;;;;;10.07;7.13;;;;;;;;;;5184650;28;20385;-68
2022/09/10 13:00:52;;;;;;;9.52;8.80;;;;;;;;;;5184985;28;20101;-67
2022/09/10 13:03:24;;;;;;;8.02;7.47;;;;;;;;;;5184338;28;20057;-68
2022/09/10 13:05:56;;;;;;;7.15;6.32;;;;;;;;;;5185345;28;20477;-68
2022/09/10 13:08:28;;;;;;;9.40;7.38;;;;;;;;;;5184763;28;20029;-68
2022/09/10 13:11:00;;;;;;;9.85;8.32;;;;;;;;;;5185481;28;20482;-68
2022/09/10 13:13:42;;;;;;;6.97;6.45;;;;;;;;;;5184989;28;20101;-68
2022/09/10 13:16:35;;;;;;;7.18;6.65;;;;;;;;;;5184891;28;20072;-68
2022/09/10 13:19:12;;;;;;;6.60;5.00;;;;;;;;;;5183768;28;20053;-68
2022/09/10 13:21:42;;;;;;;6.15;5.70;;;;;;;;;;5185048;28;20049;-68
2022/09/10 13:24:31;;;;;;;5.93;5.43;;;;;;;;;;5184655;28;20496;-67
2022/09/10 13:27:01;;;;;;;5.72;5.25;;;;;;;;;;5185125;28;20257;-69
2022/09/10 13:29:39;;;;;;;5.63;5.23;;;;;;;;;;5200221;28;20038;-69
2022/09/10 13:32:22;;;;;;;5.28;4.85;;;;;;;;;;5185632;28;20773;-69
2022/09/10 13:34:55;;;;;;;5.40;4.90;;;;;;;;;;5183597;28;20026;-70
2022/09/10 13:37:31;;;;;;;5.32;4.85;;;;;;;;;;5200857;28;20029;-68
2022/09/10 13:40:19;;;;;;;7.07;6.15;;;;;;;;;;5200451;28;20021;-71
2022/09/10 13:42:49;;;;;;;3.70;3.50;;;;;;;;;;5185808;28;20119;-68
2022/09/10 13:45:22;;;;;;;10.97;6.20;;;;;;;;;;5184739;28;20393;-67
2022/09/10 13:48:11;;;;;;;6.80;4.55;;;;;;;;;;5185132;28;20691;-67
2022/09/10 13:51:11;;;;;;;3.95;3.65;;;;;;;;;;5200367;28;20378;-67
2022/09/10 13:53:43;;;;;;;5.68;5.25;;;;;;;;;;5145992;28;20054;-68
2022/09/10 13:56:16;;;;;;;8.90;4.35;;;;;;;;;;5183180;28;20334;-68
2022/09/10 13:58:48;;;;;;;4.65;4.00;;;;;;;;;;5185772;28;20021;-68
2022/09/10 14:01:19;;;;;;;4.22;3.92;;;;;;;;;;5184621;28;20478;-71
2022/09/10 14:03:49;;;;;;;6.20;5.23;;;;;;;;;;5185555;28;20018;-69
2022/09/10 14:06:20;;;;;;;5.03;4.73;;;;;;;;;;5184965;28;20384;-67
2022/09/10 14:09:01;;;;;;;7.32;5.45;;;;;;;;;;5185414;28;20265;-67
2022/09/10 14:11:33;;;;;;;4.90;4.68;;;;;;;;;;5185531;28;20014;-69
2022/09/10 14:14:08;;;;;;;6.25;5.03;;;;;;;;;;5183842;28;20018;-68
2022/09/10 14:16:41;;;;;;;5.47;4.88;;;;;;;;;;5184652;28;20075;-67
2022/09/10 14:19:37;;;;;;;4.35;4.03;;;;;;;;;;5185229;28;20109;-67
2022/09/10 14:22:13;;;;;;;8.27;3.67;;;;;;;;;;5182241;28;20043;-68
2022/09/10 14:24:45;;;;;;;8.23;5.00;;;;;;;;;;5182818;28;20146;-67
2022/09/10 14:27:17;;;;;;;4.20;3.83;;;;;;;;;;5186761;28;20030;-69
2022/09/10 14:29:49;;;;;;;3.28;3.08;;;;;;;;;;5183521;28;20048;-68
2022/09/10 14:32:26;;;;;;;5.05;3.90;;;;;;;;;;5183825;28;20025;-70
2022/09/10 14:34:58;;;;;;;4.75;4.28;;;;;;;;;;5182475;28;20026;-70
2022/09/10 14:37:32;;;;;;;5.82;5.35;;;;;;;;;;5182915;28;20018;-68
2022/09/10 14:40:19;;;;;;;4.38;4.03;;;;;;;;;;5183337;28;20420;-69
2022/09/10 14:42:49;;;;;;;5.03;4.63;;;;;;;;;;5183624;28;20025;-69
2022/09/10 14:45:40;;;;;;;5.60;3.70;;;;;;;;;;5181908;28;20018;-69
2022/09/10 14:48:25;;;;;;;4.43;3.60;;;;;;;;;;5183102;28;20022;-69
2022/09/10 14:51:22;;;;;;;10.30;5.40;;;;;;;;;;5182500;28;20358;-69
2022/09/10 14:53:57;;;;;;;6.63;4.28;;;;;;;;;;5177844;28;20081;-69
2022/09/10 14:56:32;;;;;;;3.80;3.60;;;;;;;;;;5186291;28;20389;-67
2022/09/10 14:59:16;;;;;;;3.53;3.33;;;;;;;;;;5203434;28;20013;-69
2022/09/10 15:01:47;;;;;;;3.63;3.42;;;;;;;;;;5203610;28;20437;-69
2022/09/10 15:04:22;;;;;;;4.28;3.72;;;;;;;;;;5202738;28;20033;-67
2022/09/10 15:06:56;;;;;;;5.70;3.58;;;;;;;;;;5203552;28;20056;-67
2022/09/10 15:09:27;;;;;;;2.72;1.88;;;;;;;;;;5203413;28;20474;-68